createdAt,value
2023-01-02T00:00:04.501Z,78.00
2023-01-02T00:00:19.098Z,77.90
2023-01-02T00:00:23.336Z,77.90
2023-01-02T00:00:32.804Z,78.00
2023-01-02T00:00:42.188Z,78.00
2023-01-02T00:00:51.868Z,78.00
2023-01-02T00:01:01.332Z,78.10
2023-01-02T00:01:10.633Z,78.20
2023-01-02T00:01:20.034Z,78.20
2023-01-02T00:01:29.468Z,78.30
2023-01-02T00:01:38.866Z,78.40
2023-01-02T00:01:48.329Z,78.40
2023-01-02T00:01:57.775Z,78.40
2023-01-02T00:02:07.183Z,78.40
2023-01-02T00:02:16.691Z,78.40
2023-01-02T00:02:26.161Z,78.40
2023-01-02T00:02:35.616Z,78.50
2023-01-02T00:02:54.389Z,78.60
2023-01-02T00:03:03.787Z,78.70
2023-01-02T00:03:13.198Z,78.80
2023-01-02T00:03:22.709Z,78.70
2023-01-02T00:03:32.129Z,78.90
2023-01-02T00:03:41.537Z,78.90
2023-01-02T00:03:51.286Z,78.90
2023-01-02T00:04:00.781Z,78.90
2023-01-02T00:04:10.010Z,78.80
2023-01-02T00:04:19.424Z,78.80
2023-01-02T00:04:28.835Z,78.80
2023-01-02T00:04:38.238Z,78.80
2023-01-02T00:04:47.699Z,78.90
2023-01-02T00:04:57.135Z,78.90
2023-01-02T00:05:06.522Z,78.90
2023-01-02T00:05:15.937Z,79.00
2023-01-02T00:05:25.651Z,79.00
2023-01-02T00:05:44.469Z,79.10
2023-01-02T00:05:53.877Z,79.10
2023-01-02T00:06:03.333Z,79.20
2023-01-02T00:06:12.762Z,79.20
2023-01-02T00:06:22.148Z,79.20
2023-01-02T00:06:31.664Z,79.20
2023-01-02T00:06:41.091Z,79.30
2023-01-02T00:06:50.666Z,79.50
2023-01-02T00:07:00.073Z,79.50
2023-01-02T00:07:09.492Z,79.50
2023-01-02T00:07:18.869Z,79.60
2023-01-02T00:07:28.281Z,79.70
2023-01-02T00:07:37.683Z,79.60
2023-01-02T00:07:47.105Z,79.60
2023-01-02T00:07:56.508Z,79.50
2023-01-02T00:08:05.913Z,79.70
2023-01-02T00:08:24.718Z,79.70
2023-01-02T00:08:34.137Z,79.80
2023-01-02T00:08:43.601Z,79.80
2023-01-02T00:08:53.011Z,79.80
2023-01-02T00:09:02.448Z,79.80
2023-01-02T00:09:11.845Z,79.90
2023-01-02T00:09:21.484Z,79.90
2023-01-02T00:09:30.887Z,80.00
2023-01-02T00:09:40.291Z,80.00
2023-01-02T00:09:49.686Z,80.00
2023-01-02T00:10:01.427Z,80.00
2023-01-02T00:10:10.809Z,80.10
2023-01-02T00:10:20.234Z,80.10
2023-01-02T00:10:29.634Z,80.10
2023-01-02T00:10:39.042Z,80.20
2023-01-02T00:10:52.666Z,80.10
2023-01-02T00:10:57.877Z,80.20
2023-01-02T00:11:07.317Z,80.20
2023-01-02T00:11:16.716Z,80.20
2023-01-02T00:11:26.111Z,80.20
2023-01-02T00:11:35.530Z,80.20
2023-01-02T00:11:54.345Z,80.00
2023-01-02T00:12:03.750Z,80.10
2023-01-02T00:12:13.185Z,80.00
2023-01-02T00:12:22.745Z,80.10
2023-01-02T00:12:32.147Z,80.20
2023-01-02T00:12:41.555Z,80.30
2023-01-02T00:12:50.957Z,80.40
2023-01-02T00:13:00.363Z,80.40
2023-01-02T00:13:09.769Z,80.50
2023-01-02T00:13:19.229Z,80.60
2023-01-02T00:13:28.655Z,80.60
2023-01-02T00:13:38.056Z,80.60
2023-01-02T00:13:47.465Z,80.60
2023-01-02T00:13:56.871Z,80.40
2023-01-02T00:14:06.288Z,80.50
2023-01-02T00:14:15.956Z,80.50
2023-01-02T00:14:34.780Z,80.80
2023-01-02T00:14:44.201Z,80.90
2023-01-02T00:14:53.596Z,81.00
2023-01-02T00:15:03.016Z,81.00
2023-01-02T00:15:12.458Z,81.00
2023-01-02T00:15:22.940Z,81.10
2023-01-02T00:15:32.352Z,81.10
2023-01-02T00:15:41.920Z,81.10
2023-01-02T00:15:51.276Z,81.10
2023-01-02T00:16:00.653Z,81.20
2023-01-02T00:16:10.124Z,81.20
2023-01-02T00:16:19.447Z,81.20
2023-01-02T00:16:28.869Z,81.20
2023-01-02T00:16:38.313Z,81.30
2023-01-02T00:16:47.677Z,81.40
2023-01-02T00:16:57.091Z,81.40
2023-01-02T00:17:06.492Z,81.50
2023-01-02T00:17:15.927Z,81.60
2023-01-02T00:17:34.747Z,81.50
2023-01-02T00:17:44.150Z,81.60
2023-01-02T00:17:53.569Z,81.60
2023-01-02T00:18:02.971Z,81.60
2023-01-02T00:18:12.393Z,81.60
2023-01-02T00:18:21.788Z,81.60
2023-01-02T00:18:31.202Z,81.60
2023-01-02T00:18:40.641Z,81.60
2023-01-02T00:18:50.059Z,81.60
2023-01-02T00:18:59.461Z,81.70
2023-01-02T00:19:08.895Z,81.70
2023-01-02T00:19:18.302Z,81.80
2023-01-02T00:19:27.723Z,81.80
2023-01-02T00:19:37.154Z,81.80
2023-01-02T00:19:46.567Z,81.80
2023-01-02T00:19:55.993Z,81.70
2023-01-02T00:20:05.419Z,81.70
2023-01-02T00:20:24.201Z,81.60
2023-01-02T00:20:33.620Z,81.70
2023-01-02T00:20:43.029Z,81.60
2023-01-02T00:20:52.466Z,81.60
2023-01-02T00:21:01.872Z,81.60
2023-01-02T00:21:11.325Z,81.60
2023-01-02T00:21:20.725Z,81.40
2023-01-02T00:21:30.142Z,81.50
2023-01-02T00:21:39.620Z,81.50
2023-01-02T00:21:49.084Z,81.50
2023-01-02T00:21:58.510Z,81.60
2023-01-02T00:22:07.928Z,81.60
2023-01-02T00:22:17.367Z,81.70
2023-01-02T00:22:26.756Z,81.70
2023-01-02T00:22:36.151Z,81.70
2023-01-02T00:22:45.570Z,81.80
2023-01-02T00:23:04.405Z,81.80
2023-01-02T00:23:13.823Z,81.90
2023-01-02T00:23:23.224Z,81.80
2023-01-02T00:23:32.638Z,81.80
2023-01-02T00:23:42.049Z,81.80
2023-01-02T00:23:51.466Z,81.80
2023-01-02T00:24:00.901Z,81.80
2023-01-02T00:24:10.308Z,81.70
2023-01-02T00:24:19.727Z,81.70
2023-01-02T00:24:29.169Z,81.60
2023-01-02T00:24:38.578Z,81.80
2023-01-02T00:24:47.998Z,81.80
2023-01-02T00:24:57.408Z,81.70
2023-01-02T00:25:06.810Z,81.70
2023-01-02T00:25:16.194Z,81.70
2023-01-02T00:25:25.624Z,81.80
2023-01-02T00:25:44.462Z,81.90
2023-01-02T00:25:53.884Z,81.90
2023-01-02T00:26:03.260Z,82.00
2023-01-02T00:26:12.677Z,82.10
2023-01-02T00:26:22.215Z,82.10
2023-01-02T00:26:31.620Z,82.20
2023-01-02T00:26:41.011Z,82.20
2023-01-02T00:26:50.438Z,82.30
2023-01-02T00:26:59.864Z,82.30
2023-01-02T00:27:09.287Z,82.30
2023-01-02T00:27:18.674Z,82.20
2023-01-02T00:27:28.087Z,82.50
2023-01-02T00:27:37.513Z,82.50
2023-01-02T00:27:46.935Z,82.40
2023-01-02T00:27:56.356Z,82.40
2023-01-02T00:28:05.808Z,82.40
2023-01-02T00:28:24.623Z,82.60
2023-01-02T00:28:34.013Z,82.60
2023-01-02T00:28:43.422Z,82.60
2023-01-02T00:28:52.844Z,82.60
2023-01-02T00:29:02.247Z,82.70
2023-01-02T00:29:11.673Z,82.70
2023-01-02T00:29:21.067Z,82.90
2023-01-02T00:29:30.496Z,83.00
2023-01-02T00:29:39.888Z,83.10
2023-01-02T00:29:49.312Z,83.10
2023-01-02T00:29:58.755Z,83.20
2023-01-02T00:30:08.145Z,83.20
2023-01-02T00:30:17.528Z,83.30
2023-01-02T00:30:31.013Z,83.30
2023-01-02T00:30:38.628Z,83.30
2023-01-02T00:30:45.780Z,83.40
2023-01-02T00:31:04.633Z,83.30
2023-01-02T00:31:14.164Z,83.20
2023-01-02T00:31:23.460Z,83.20
2023-01-02T00:31:32.966Z,83.10
2023-01-02T00:31:42.316Z,83.10
2023-01-02T00:31:51.640Z,83.10
2023-01-02T00:32:01.059Z,83.00
2023-01-02T00:32:10.453Z,83.00
2023-01-02T00:32:19.878Z,83.00
2023-01-02T00:32:29.287Z,83.00
2023-01-02T00:32:38.719Z,83.00
2023-01-02T00:32:48.110Z,82.90
2023-01-02T00:32:57.515Z,82.90
2023-01-02T00:33:06.915Z,82.90
2023-01-02T00:33:16.293Z,83.00
2023-01-02T00:33:25.722Z,83.00
2023-01-02T00:33:47.377Z,82.90
2023-01-02T00:33:56.807Z,82.90
2023-01-02T00:34:06.282Z,82.90
2023-01-02T00:34:15.695Z,82.90
2023-01-02T00:34:25.073Z,83.00
2023-01-02T00:34:34.482Z,83.00
2023-01-02T00:34:43.897Z,83.00
2023-01-02T00:34:53.274Z,82.90
2023-01-02T00:35:02.721Z,82.90
2023-01-02T00:35:12.158Z,82.80
2023-01-02T00:35:21.531Z,82.70
2023-01-02T00:35:30.949Z,82.70
2023-01-02T00:35:40.343Z,82.70
2023-01-02T00:35:49.750Z,82.70
2023-01-02T00:35:59.133Z,82.60
2023-01-02T00:36:08.558Z,82.60
2023-01-02T00:36:17.962Z,82.60
2023-01-02T00:36:27.363Z,82.70
2023-01-02T00:36:36.768Z,82.70
2023-01-02T00:36:46.170Z,82.80
2023-01-02T00:36:55.602Z,82.80
2023-01-02T00:37:14.472Z,82.70
2023-01-02T00:37:23.868Z,82.80
2023-01-02T00:37:33.298Z,82.70
2023-01-02T00:37:42.709Z,82.70
2023-01-02T00:37:52.113Z,82.70
2023-01-02T00:38:01.515Z,82.80
2023-01-02T00:38:10.907Z,82.70
2023-01-02T00:38:20.298Z,82.70
2023-01-02T00:38:29.713Z,82.70
2023-01-02T00:38:39.120Z,82.80
2023-01-02T00:38:48.523Z,82.80
2023-01-02T00:38:57.943Z,82.80
2023-01-02T00:39:07.332Z,82.90
2023-01-02T00:39:16.759Z,82.90
2023-01-02T00:39:26.523Z,82.80
2023-01-02T00:39:35.579Z,82.90
2023-01-02T00:39:54.352Z,82.80
2023-01-02T00:40:03.754Z,82.70
2023-01-02T00:40:13.173Z,82.60
2023-01-02T00:40:22.610Z,82.60
2023-01-02T00:40:32.018Z,82.60
2023-01-02T00:40:41.424Z,82.50
2023-01-02T00:40:50.829Z,82.60
2023-01-02T00:41:00.240Z,82.70
2023-01-02T00:41:09.706Z,82.70
2023-01-02T00:41:19.113Z,82.70
2023-01-02T00:41:28.501Z,82.70
2023-01-02T00:41:37.910Z,82.70
2023-01-02T00:41:47.336Z,82.80
2023-01-02T00:41:56.771Z,82.80
2023-01-02T00:42:06.180Z,82.80
2023-01-02T00:42:15.597Z,82.80
2023-01-02T00:42:34.436Z,82.90
2023-01-02T00:42:43.879Z,82.90
2023-01-02T00:42:53.275Z,82.90
2023-01-02T00:43:02.756Z,82.90
2023-01-02T00:43:12.157Z,83.00
2023-01-02T00:43:21.541Z,83.00
2023-01-02T00:43:30.970Z,82.90
2023-01-02T00:43:40.397Z,83.00
2023-01-02T00:43:49.763Z,83.00
2023-01-02T00:43:59.187Z,83.10
2023-01-02T00:44:08.628Z,83.10
2023-01-02T00:44:18.027Z,83.00
2023-01-02T00:44:27.456Z,83.20
2023-01-02T00:44:36.939Z,83.20
2023-01-02T00:44:46.352Z,83.20
2023-01-02T00:44:55.766Z,83.20
2023-01-02T00:45:14.595Z,83.20
2023-01-02T00:45:23.995Z,83.20
2023-01-02T00:45:33.384Z,83.30
2023-01-02T00:45:42.766Z,83.30
2023-01-02T00:45:52.173Z,83.40
2023-01-02T00:46:04.911Z,83.40
2023-01-02T00:46:12.239Z,83.30
2023-01-02T00:46:20.527Z,83.30
2023-01-02T00:46:29.900Z,83.30
2023-01-02T00:46:39.246Z,83.20
2023-01-02T00:46:48.624Z,83.20
2023-01-02T00:46:58.057Z,83.20
2023-01-02T00:47:07.464Z,83.30
2023-01-02T00:47:16.809Z,83.30
2023-01-02T00:47:26.218Z,83.30
2023-01-02T00:47:35.629Z,83.20
2023-01-02T00:47:54.446Z,83.10
2023-01-02T00:48:03.822Z,83.10
2023-01-02T00:48:13.240Z,83.10
2023-01-02T00:48:22.650Z,83.20
2023-01-02T00:48:32.066Z,83.20
2023-01-02T00:48:41.503Z,83.20
2023-01-02T00:48:50.892Z,83.20
2023-01-02T00:49:00.318Z,83.20
2023-01-02T00:49:09.712Z,83.20
2023-01-02T00:49:19.134Z,83.20
2023-01-02T00:49:28.554Z,83.10
2023-01-02T00:49:37.955Z,83.00
2023-01-02T00:49:47.390Z,83.00
2023-01-02T00:49:56.860Z,83.00
2023-01-02T00:50:06.272Z,83.00
2023-01-02T00:50:15.693Z,83.10
2023-01-02T00:50:34.504Z,83.10
2023-01-02T00:50:43.935Z,83.10
2023-01-02T00:50:53.333Z,83.10
2023-01-02T00:51:02.768Z,83.20
2023-01-02T00:51:12.186Z,83.20
2023-01-02T00:51:21.607Z,83.30
2023-01-02T00:51:31.004Z,83.30
2023-01-02T00:51:40.405Z,83.40
2023-01-02T00:51:49.783Z,83.40
2023-01-02T00:51:59.175Z,83.50
2023-01-02T00:52:08.565Z,83.50
2023-01-02T00:52:17.963Z,83.60
2023-01-02T00:52:27.422Z,83.70
2023-01-02T00:52:36.820Z,83.70
2023-01-02T00:52:46.215Z,83.60
2023-01-02T00:52:55.609Z,83.60
2023-01-02T00:53:14.426Z,83.60
2023-01-02T00:53:23.814Z,83.60
2023-01-02T00:53:33.237Z,83.70
2023-01-02T00:53:42.641Z,83.70
2023-01-02T00:53:52.061Z,83.70
2023-01-02T00:54:01.543Z,83.80
2023-01-02T00:54:10.932Z,83.80
2023-01-02T00:54:20.350Z,83.90
2023-01-02T00:54:29.731Z,83.80
2023-01-02T00:54:39.146Z,83.80
2023-01-02T00:54:48.538Z,83.80
2023-01-02T00:54:57.946Z,83.70
2023-01-02T00:55:07.335Z,83.60
2023-01-02T00:55:16.745Z,83.50
2023-01-02T00:55:26.169Z,83.60
2023-01-02T00:55:35.575Z,83.50
2023-01-02T00:55:54.389Z,83.30
2023-01-02T00:56:03.823Z,83.30
2023-01-02T00:56:13.213Z,83.30
2023-01-02T00:56:22.621Z,83.30
2023-01-02T00:56:32.023Z,83.30
2023-01-02T00:56:41.428Z,83.40
2023-01-02T00:56:50.853Z,83.40
2023-01-02T00:57:00.276Z,83.30
2023-01-02T00:57:09.715Z,83.30
2023-01-02T00:57:19.117Z,83.20
2023-01-02T00:57:28.498Z,83.20
2023-01-02T00:57:37.879Z,83.20
2023-01-02T00:57:47.281Z,83.30
2023-01-02T00:57:56.731Z,83.30
2023-01-02T00:58:06.153Z,83.30
2023-01-02T00:58:15.555Z,83.30
2023-01-02T00:58:34.333Z,83.20
2023-01-02T00:58:43.714Z,83.20
2023-01-02T00:58:53.294Z,83.20
2023-01-02T00:59:04.652Z,83.20
2023-01-02T00:59:14.067Z,83.20
2023-01-02T00:59:23.459Z,83.20
2023-01-02T00:59:32.897Z,83.30
2023-01-02T00:59:42.289Z,83.30
2023-01-02T00:59:51.698Z,83.30
2023-01-02T01:00:01.114Z,83.30
2023-01-02T01:00:10.551Z,83.50
2023-01-02T01:00:23.848Z,83.30
2023-01-02T01:00:29.452Z,83.30
2023-01-02T01:00:38.807Z,83.40
2023-01-02T01:00:48.164Z,83.30
2023-01-02T01:00:57.700Z,83.30
2023-01-02T01:01:07.092Z,83.20
2023-01-02T01:01:16.591Z,83.10
2023-01-02T01:01:25.992Z,83.10
2023-01-02T01:01:44.917Z,83.10
2023-01-02T01:01:54.227Z,83.00
2023-01-02T01:02:03.685Z,83.00
2023-01-02T01:02:13.012Z,83.10
2023-01-02T01:02:22.429Z,83.10
2023-01-02T01:02:31.932Z,83.20
2023-01-02T01:02:41.219Z,83.20
2023-01-02T01:02:50.631Z,83.10
2023-01-02T01:03:00.103Z,83.10
2023-01-02T01:03:09.476Z,83.10
2023-01-02T01:03:18.824Z,83.00
2023-01-02T01:03:28.208Z,83.00
2023-01-02T01:03:37.613Z,83.00
2023-01-02T01:03:47.008Z,82.90
2023-01-02T01:03:56.417Z,83.10
2023-01-02T01:04:05.847Z,83.10
2023-01-02T01:04:24.659Z,83.00
2023-01-02T01:04:34.075Z,83.00
2023-01-02T01:04:43.498Z,83.00
2023-01-02T01:04:52.896Z,83.00
2023-01-02T01:05:02.289Z,83.00
2023-01-02T01:05:11.708Z,83.00
2023-01-02T01:05:21.120Z,83.00
2023-01-02T01:05:30.530Z,83.00
2023-01-02T01:05:39.938Z,83.10
2023-01-02T01:05:49.348Z,83.10
2023-01-02T01:05:58.745Z,83.10
2023-01-02T01:06:08.154Z,83.10
2023-01-02T01:06:17.552Z,83.20
2023-01-02T01:06:26.973Z,83.20
2023-01-02T01:06:36.371Z,83.20
2023-01-02T01:06:45.794Z,83.20
2023-01-02T01:07:04.582Z,83.30
2023-01-02T01:07:13.991Z,83.40
2023-01-02T01:07:23.376Z,83.50
2023-01-02T01:07:32.786Z,83.60
2023-01-02T01:07:42.190Z,83.70
2023-01-02T01:07:51.597Z,83.80
2023-01-02T01:08:01.018Z,83.90
2023-01-02T01:08:10.439Z,83.90
2023-01-02T01:08:19.867Z,83.80
2023-01-02T01:08:29.274Z,83.80
2023-01-02T01:08:38.668Z,84.00
2023-01-02T01:08:48.063Z,83.90
2023-01-02T01:08:57.464Z,84.00
2023-01-02T01:09:06.890Z,84.00
2023-01-02T01:09:16.294Z,84.10
2023-01-02T01:09:25.715Z,84.10
2023-01-02T01:09:44.578Z,84.00
2023-01-02T01:09:53.986Z,84.10
2023-01-02T01:10:03.375Z,84.00
2023-01-02T01:10:12.807Z,84.10
2023-01-02T01:10:22.189Z,84.00
2023-01-02T01:10:31.607Z,84.00
2023-01-02T01:10:41.011Z,84.00
2023-01-02T01:10:50.397Z,84.00
2023-01-02T01:10:59.796Z,83.90
2023-01-02T01:11:09.216Z,84.00
2023-01-02T01:11:18.619Z,84.00
2023-01-02T01:11:28.060Z,84.00
2023-01-02T01:11:37.443Z,83.90
2023-01-02T01:11:46.871Z,83.90
2023-01-02T01:11:56.253Z,83.80
2023-01-02T01:12:05.636Z,83.80
2023-01-02T01:12:24.447Z,83.70
2023-01-02T01:12:33.836Z,83.70
2023-01-02T01:12:43.231Z,83.70
2023-01-02T01:12:52.657Z,83.70
2023-01-02T01:13:02.060Z,83.70
2023-01-02T01:13:11.489Z,83.70
2023-01-02T01:13:20.877Z,83.70
2023-01-02T01:13:30.302Z,83.70
2023-01-02T01:13:39.707Z,83.70
2023-01-02T01:13:49.125Z,83.70
2023-01-02T01:13:58.511Z,83.60
2023-01-02T01:14:07.949Z,83.60
2023-01-02T01:14:17.367Z,83.50
2023-01-02T01:14:26.770Z,83.50
2023-01-02T01:14:36.173Z,83.50
2023-01-02T01:14:45.604Z,83.50
2023-01-02T01:15:04.415Z,83.50
2023-01-02T01:15:13.810Z,83.50
2023-01-02T01:15:23.231Z,83.40
2023-01-02T01:15:32.613Z,83.30
2023-01-02T01:15:42.038Z,83.40
2023-01-02T01:15:51.588Z,83.30
2023-01-02T01:16:00.956Z,83.30
2023-01-02T01:16:10.347Z,83.20
2023-01-02T01:16:19.781Z,83.10
2023-01-02T01:16:29.248Z,83.10
2023-01-02T01:16:38.696Z,83.10
2023-01-02T01:16:48.006Z,83.10
2023-01-02T01:16:57.412Z,83.10
2023-01-02T01:17:06.812Z,83.10
2023-01-02T01:17:16.205Z,83.10
2023-01-02T01:17:25.600Z,83.10
2023-01-02T01:17:44.428Z,83.10
2023-01-02T01:17:53.859Z,83.10
2023-01-02T01:18:03.277Z,83.10
2023-01-02T01:18:12.687Z,83.00
2023-01-02T01:18:22.111Z,83.00
2023-01-02T01:18:31.548Z,83.00
2023-01-02T01:18:40.947Z,83.00
2023-01-02T01:18:50.400Z,83.00
2023-01-02T01:18:59.805Z,83.00
2023-01-02T01:19:09.253Z,83.00
2023-01-02T01:19:18.649Z,83.00
2023-01-02T01:19:28.066Z,83.00
2023-01-02T01:19:37.494Z,83.00
2023-01-02T01:19:46.879Z,83.10
2023-01-02T01:19:56.280Z,83.10
2023-01-02T01:20:05.692Z,83.20
2023-01-02T01:20:24.497Z,83.20
2023-01-02T01:20:33.906Z,83.30
2023-01-02T01:20:43.288Z,83.40
2023-01-02T01:20:52.698Z,83.40
2023-01-02T01:21:02.099Z,83.50
2023-01-02T01:21:11.556Z,83.60
2023-01-02T01:21:20.907Z,83.60
2023-01-02T01:21:30.301Z,83.60
2023-01-02T01:21:39.702Z,83.60
2023-01-02T01:21:49.095Z,83.50
2023-01-02T01:21:58.529Z,83.50
2023-01-02T01:22:07.969Z,83.50
2023-01-02T01:22:17.394Z,83.50
2023-01-02T01:22:26.829Z,83.30
2023-01-02T01:22:36.237Z,83.30
2023-01-02T01:22:45.653Z,83.30
2023-01-02T01:23:04.474Z,83.20
2023-01-02T01:23:13.878Z,83.30
2023-01-02T01:23:23.274Z,83.30
2023-01-02T01:23:32.673Z,83.30
2023-01-02T01:23:42.113Z,83.30
2023-01-02T01:23:51.589Z,83.30
2023-01-02T01:24:00.971Z,83.30
2023-01-02T01:24:10.505Z,83.20
2023-01-02T01:24:19.901Z,83.20
2023-01-02T01:24:29.321Z,83.20
2023-01-02T01:24:38.725Z,83.20
2023-01-02T01:24:48.135Z,83.20
2023-01-02T01:24:57.520Z,83.10
2023-01-02T01:25:06.939Z,83.10
2023-01-02T01:25:16.403Z,83.10
2023-01-02T01:25:25.823Z,83.10
2023-01-02T01:25:44.624Z,83.10
2023-01-02T01:25:54.037Z,83.10
2023-01-02T01:26:03.448Z,83.10
2023-01-02T01:26:12.865Z,83.20
2023-01-02T01:26:22.277Z,83.20
2023-01-02T01:26:31.689Z,83.20
2023-01-02T01:26:41.096Z,83.20
2023-01-02T01:26:50.519Z,83.20
2023-01-02T01:26:59.929Z,83.20
2023-01-02T01:27:09.380Z,83.30
2023-01-02T01:27:18.799Z,83.30
2023-01-02T01:27:28.194Z,83.30
2023-01-02T01:27:37.618Z,83.30
2023-01-02T01:27:47.003Z,83.30
2023-01-02T01:27:56.442Z,83.30
2023-01-02T01:28:05.867Z,83.30
2023-01-02T01:28:24.921Z,83.20
2023-01-02T01:28:34.349Z,83.20
2023-01-02T01:28:43.733Z,83.20
2023-01-02T01:28:53.158Z,83.20
2023-01-02T01:29:02.577Z,83.20
2023-01-02T01:29:12.029Z,83.20
2023-01-02T01:29:21.450Z,83.20
2023-01-02T01:29:30.847Z,83.20
2023-01-02T01:29:40.225Z,83.20
2023-01-02T01:29:49.619Z,83.30
2023-01-02T01:29:59.028Z,83.30
2023-01-02T01:30:08.478Z,83.40
2023-01-02T01:30:17.899Z,83.40
2023-01-02T01:30:27.306Z,83.50
2023-01-02T01:30:36.704Z,83.50
2023-01-02T01:30:46.107Z,83.50
2023-01-02T01:30:55.528Z,83.50
2023-01-02T01:31:14.419Z,83.50
2023-01-02T01:31:23.997Z,83.60
2023-01-02T01:31:33.308Z,83.50
2023-01-02T01:31:42.697Z,83.50
2023-01-02T01:31:52.224Z,83.50
2023-01-02T01:32:01.708Z,83.40
2023-01-02T01:32:10.942Z,83.40
2023-01-02T01:32:20.360Z,83.50
2023-01-02T01:32:29.760Z,83.50
2023-01-02T01:32:39.201Z,83.40
2023-01-02T01:32:48.611Z,83.50
2023-01-02T01:32:58.034Z,83.50
2023-01-02T01:33:07.436Z,83.50
2023-01-02T01:33:16.839Z,83.50
2023-01-02T01:33:26.264Z,83.60
2023-01-02T01:33:35.668Z,83.50
2023-01-02T01:33:54.530Z,83.60
2023-01-02T01:34:03.950Z,83.60
2023-01-02T01:34:13.663Z,83.60
2023-01-02T01:34:23.071Z,83.60
2023-01-02T01:34:32.582Z,83.70
2023-01-02T01:34:42.022Z,83.80
2023-01-02T01:34:51.525Z,83.80
2023-01-02T01:35:00.933Z,83.70
2023-01-02T01:35:10.346Z,83.80
2023-01-02T01:35:19.821Z,83.80
2023-01-02T01:35:29.234Z,83.80
2023-01-02T01:35:38.640Z,83.80
2023-01-02T01:35:48.070Z,83.70
2023-01-02T01:35:57.481Z,83.70
2023-01-02T01:36:06.871Z,83.60
2023-01-02T01:36:16.299Z,83.60
2023-01-02T01:36:25.680Z,83.50
2023-01-02T01:36:44.470Z,83.40
2023-01-02T01:36:53.873Z,83.30
2023-01-02T01:37:03.290Z,83.30
2023-01-02T01:37:12.696Z,83.30
2023-01-02T01:37:22.084Z,83.30
2023-01-02T01:37:31.525Z,83.30
2023-01-02T01:37:40.926Z,83.30
2023-01-02T01:37:50.311Z,83.30
2023-01-02T01:37:59.705Z,83.30
2023-01-02T01:38:09.137Z,83.30
2023-01-02T01:38:18.542Z,83.50
2023-01-02T01:38:27.928Z,83.50
2023-01-02T01:38:37.342Z,83.50
2023-01-02T01:38:46.788Z,83.50
2023-01-02T01:38:56.245Z,83.50
2023-01-02T01:39:05.657Z,83.50
2023-01-02T01:39:24.491Z,83.20
2023-01-02T01:39:33.898Z,83.20
2023-01-02T01:39:43.336Z,83.10
2023-01-02T01:39:56.525Z,83.10
2023-01-02T01:40:02.244Z,83.00
2023-01-02T01:40:11.643Z,83.00
2023-01-02T01:40:21.054Z,83.00
2023-01-02T01:40:30.467Z,83.10
2023-01-02T01:40:39.858Z,83.10
2023-01-02T01:40:49.254Z,83.20
2023-01-02T01:40:58.670Z,83.10
2023-01-02T01:41:08.099Z,83.10
2023-01-02T01:41:17.544Z,83.00
2023-01-02T01:41:26.923Z,82.90
2023-01-02T01:41:36.356Z,82.90
2023-01-02T01:41:45.785Z,82.90
2023-01-02T01:42:04.593Z,83.00
2023-01-02T01:42:14.017Z,83.00
2023-01-02T01:42:23.424Z,83.00
2023-01-02T01:42:32.858Z,83.00
2023-01-02T01:42:42.267Z,83.10
2023-01-02T01:42:53.939Z,83.10
2023-01-02T01:43:01.318Z,83.20
2023-01-02T01:43:10.555Z,83.20
2023-01-02T01:43:20.027Z,83.20
2023-01-02T01:43:29.425Z,83.20
2023-01-02T01:43:38.843Z,83.20
2023-01-02T01:43:48.285Z,83.30
2023-01-02T01:43:57.711Z,83.30
2023-01-02T01:44:07.111Z,83.30
2023-01-02T01:44:16.521Z,83.30
2023-01-02T01:44:25.936Z,83.30
2023-01-02T01:44:44.788Z,83.30
2023-01-02T01:44:54.186Z,83.30
2023-01-02T01:45:03.642Z,83.30
2023-01-02T01:45:13.050Z,83.40
2023-01-02T01:45:22.467Z,83.30
2023-01-02T01:45:31.917Z,83.30
2023-01-02T01:45:41.362Z,83.30
2023-01-02T01:45:50.799Z,83.40
2023-01-02T01:46:00.249Z,83.50
2023-01-02T01:46:09.657Z,83.50
2023-01-02T01:46:18.988Z,83.50
2023-01-02T01:46:28.385Z,83.50
2023-01-02T01:46:37.886Z,83.50
2023-01-02T01:46:47.301Z,83.40
2023-01-02T01:46:56.692Z,83.40
2023-01-02T01:47:06.124Z,83.40
2023-01-02T01:47:15.515Z,83.40
2023-01-02T01:47:34.353Z,83.40
2023-01-02T01:47:43.804Z,83.40
2023-01-02T01:47:53.186Z,83.40
2023-01-02T01:48:02.613Z,83.60
2023-01-02T01:48:12.027Z,83.60
2023-01-02T01:48:21.448Z,83.60
2023-01-02T01:48:30.870Z,83.80
2023-01-02T01:48:40.300Z,83.80
2023-01-02T01:48:49.719Z,83.70
2023-01-02T01:48:59.104Z,83.80
2023-01-02T01:49:08.533Z,83.80
2023-01-02T01:49:18.000Z,83.80
2023-01-02T01:49:27.402Z,83.80
2023-01-02T01:49:36.818Z,83.80
2023-01-02T01:49:46.239Z,83.80
2023-01-02T01:49:58.601Z,83.80
2023-01-02T01:50:14.538Z,83.90
2023-01-02T01:50:23.947Z,83.90
2023-01-02T01:50:33.338Z,83.90
2023-01-02T01:50:42.748Z,83.90
2023-01-02T01:50:52.163Z,83.90
2023-01-02T01:51:01.587Z,83.80
2023-01-02T01:51:11.000Z,83.90
2023-01-02T01:51:20.449Z,83.90
2023-01-02T01:51:29.866Z,83.90
2023-01-02T01:51:39.349Z,83.90
2023-01-02T01:51:48.752Z,84.00
2023-01-02T01:51:58.144Z,84.00
2023-01-02T01:52:07.540Z,84.00
2023-01-02T01:52:16.939Z,84.10
2023-01-02T01:52:26.394Z,84.30
2023-01-02T01:52:35.775Z,84.20
2023-01-02T01:52:54.653Z,84.30
2023-01-02T01:53:04.062Z,84.40
2023-01-02T01:53:13.528Z,84.40
2023-01-02T01:53:22.946Z,84.50
2023-01-02T01:53:32.328Z,84.60
2023-01-02T01:53:41.760Z,84.70
2023-01-02T01:53:51.145Z,84.90
2023-01-02T01:54:00.532Z,84.90
2023-01-02T01:54:09.951Z,85.00
2023-01-02T01:54:19.392Z,85.10
2023-01-02T01:54:28.775Z,85.10
2023-01-02T01:54:38.197Z,85.10
2023-01-02T01:54:47.601Z,85.10
2023-01-02T01:54:57.006Z,85.30
2023-01-02T01:55:06.437Z,85.30
2023-01-02T01:55:15.834Z,85.40
2023-01-02T01:55:34.669Z,85.50
2023-01-02T01:55:44.123Z,85.40
2023-01-02T01:55:53.519Z,85.40
2023-01-02T01:56:02.943Z,85.30
2023-01-02T01:56:12.368Z,85.40
2023-01-02T01:56:21.820Z,85.50
2023-01-02T01:56:31.240Z,85.50
2023-01-02T01:56:40.635Z,85.60
2023-01-02T01:56:50.044Z,85.60
2023-01-02T01:56:59.438Z,85.60
2023-01-02T01:57:08.849Z,85.60
2023-01-02T01:57:18.273Z,85.50
2023-01-02T01:57:27.690Z,85.50
2023-01-02T01:57:37.096Z,85.60
2023-01-02T01:57:46.506Z,85.50
2023-01-02T01:57:55.904Z,85.60
2023-01-02T01:58:14.722Z,85.50
2023-01-02T01:58:24.146Z,85.50
2023-01-02T01:58:33.547Z,85.60
2023-01-02T01:58:42.991Z,85.50
2023-01-02T01:58:52.394Z,85.60
2023-01-02T01:59:01.838Z,85.60
2023-01-02T01:59:11.218Z,85.70
2023-01-02T01:59:20.676Z,85.80
2023-01-02T01:59:30.098Z,85.80
2023-01-02T01:59:39.506Z,85.80
2023-01-02T01:59:48.896Z,85.80
2023-01-02T01:59:58.332Z,85.80
2023-01-02T02:00:07.722Z,85.80
2023-01-02T02:00:17.134Z,85.90
2023-01-02T02:00:26.558Z,85.90
2023-01-02T02:00:36.022Z,86.00
2023-01-02T02:00:45.526Z,86.00
2023-01-02T02:01:04.281Z,86.10
2023-01-02T02:01:13.881Z,86.00
2023-01-02T02:01:23.136Z,86.00
2023-01-02T02:01:32.688Z,86.00
2023-01-02T02:01:42.133Z,86.00
2023-01-02T02:01:51.554Z,86.10
2023-01-02T02:02:01.026Z,86.20
2023-01-02T02:02:10.417Z,86.20
2023-01-02T02:02:19.754Z,86.20
2023-01-02T02:02:29.145Z,86.20
2023-01-02T02:02:38.517Z,86.20
2023-01-02T02:02:47.961Z,86.20
2023-01-02T02:02:57.332Z,86.20
2023-01-02T02:03:06.737Z,86.20
2023-01-02T02:03:16.163Z,86.30
2023-01-02T02:03:25.472Z,86.40
2023-01-02T02:03:44.293Z,86.60
2023-01-02T02:03:53.711Z,86.60
2023-01-02T02:04:03.122Z,86.40
2023-01-02T02:04:12.543Z,86.40
2023-01-02T02:04:21.983Z,86.50
2023-01-02T02:04:31.455Z,86.60
2023-01-02T02:04:40.847Z,86.70
2023-01-02T02:04:50.265Z,86.70
2023-01-02T02:04:59.729Z,86.70
2023-01-02T02:05:09.137Z,86.80
2023-01-02T02:05:18.607Z,86.80
2023-01-02T02:05:28.024Z,86.80
2023-01-02T02:05:37.444Z,86.70
2023-01-02T02:05:46.852Z,86.70
2023-01-02T02:05:56.273Z,86.70
2023-01-02T02:06:05.691Z,86.80
2023-01-02T02:06:24.513Z,86.80
2023-01-02T02:06:33.924Z,86.90
2023-01-02T02:06:43.357Z,87.00
2023-01-02T02:06:52.767Z,87.00
2023-01-02T02:07:02.173Z,87.10
2023-01-02T02:07:11.590Z,87.20
2023-01-02T02:07:20.995Z,87.30
2023-01-02T02:07:30.416Z,87.50
2023-01-02T02:07:39.884Z,87.60
2023-01-02T02:07:49.294Z,87.80
2023-01-02T02:07:58.719Z,87.90
2023-01-02T02:08:08.136Z,88.10
2023-01-02T02:08:17.549Z,88.50
2023-01-02T02:08:27.027Z,88.80
2023-01-02T02:08:36.477Z,89.00